September 28, 2022

Time Code Weather Temp. Visibility Ceiling Wind METAR/SPECI
12:20
V
13 °C 10 km+ 6,000 ft 360° 360° 12 kt METAR EGQS 281120Z 36012KT 9999 FEW014 BKN060 13/09 Q1002 TEMPO SCT014 RMK BLU TEMPO GRN
11:50
V
12 °C 10 km+ 5,500 ft 360° 360° 14 kt METAR EGQS 281050Z 36014KT 9999 FEW014 BKN055 12/09 Q1002 TEMPO 7000 SHRA SCT015 RMK BLU TEMPO WHT
11:20
V
12 °C 10 km+ 3,000 ft 350° 350° 14 kt METAR EGQS 281020Z 35014KT 9999 FEW012 SCT016 BKN030 12/09 Q1002 TEMPO 7000 SHRA RMK WHT TEMPO WHT
10:50
V
12 °C 10 km+ 3,000 ft 350° 350° 15 kt METAR EGQS 280950Z 35015KT 9999 FEW014 BKN030 12/09 Q1002 TEMPO 7000 SHRA SCT015 RMK BLU TEMPO WHT
10:20
M
12 °C 10 km+ 2,200 ft 350° 350° 15 kt METAR EGQS 280920Z 35015KT 9999 7000SE -SHRA FEW014 BKN022 12/09 Q1002 TEMPO SCT014 RMK WHT TEMPO GRN
09:50
V
11 °C 10 km+ 3,000 ft 350° 350° 15 kt METAR EGQS 280850Z 35015KT 9999 7000SE VCSH FEW012 BKN030 11/09 Q1002 TEMPO SCT014 RMK WHT TEMPO GRN
09:20
V
11 °C 10 km+ 3,000 ft 350° 350° 15 kt METAR EGQS 280820Z 35015KT 9999 FEW012 SCT015 BKN030 11/09 Q1002 TEMPO 7000 -RADZ SCT014 RMK WHT TEMPO GRN
09:03
M
11 °C 10 km+ 2,500 ft 350° 350° 15 kt METAR EGQS 280803Z 35015KT 9999 -SHRA FEW009 SCT015 BKN025 11/09 Q1002 TEMPO 7000 -RADZ SCT014 RMK WHT TEMPO GRN
08:50
M
11 °C 10 km+ 2,500 ft 350° 350° 17 kt METAR EGQS 280750Z 35017KT 9999 FEW009 BKN025 11/09 Q1001 TEMPO 7000 -RADZ SCT015 RMK BLU TEMPO WHT
08:20
V
11 °C 10 km+ 3,000 ft 350° 350° 16 kt METAR EGQS 280720Z 35016KT 9999 FEW010 SCT015 BKN030 11/09 Q1001 TEMPO 7000 -RADZ RMK WHT TEMPO WHT
07:50
V
11 °C 10 km+ 3,000 ft 350° 350° 14 kt METAR EGQS 280650Z 35014KT 9999 FEW010 SCT015 BKN030 11/09 Q1001 NOSIG RMK WHT WHT
06:50
M
10 °C 10 km+ 2,000 ft 310° 310° 14 kt METAR EGQS 280550Z 31014KT 9999 SCT013 BKN020 10/09 Q1001 NOSIG RMK GRN GRN
05:50
M
10 °C 5 km 1,500 ft 300° 300° 12 kt METAR EGQS 280450Z 30012KT 5000 -RADZ SCT007 BKN015 10/08 Q1001 RMK GRN
04:50
V
10 °C 10 km+ 4,100 ft 310° 310° 11 kt METAR EGQS 280350Z 31011KT 9999 -SHRA FEW015 SCT018 BKN041 10/08 Q1001 RMK WHT
03:50
V
10 °C 10 km+ 3,400 ft 310° 310° 11 kt METAR EGQS 280250Z 31011KT 9999 -SHRA SCT015 BKN034 BKN060 10/08 Q1001 RMK WHT
02:50
V
10 °C 10 km+ 4,200 ft 340° 340° 10 kt METAR EGQS 280150Z 34010KT 9999 FEW020 BKN042 BKN070 10/07 Q1001 RMK BLU
01:50
V
10 °C 10 km+ - 340° 340° 11 kt METAR EGQS 280050Z 34011KT 9999 FEW022 10/06 Q1001 RMK BLU
00:50
V
9 °C 10 km+ - 360° 360° 11 kt METAR EGQS 272350Z 36011KT 9999 FEW022 09/06 Q1001 RMK BLU

September 27, 2022

Time Code Weather Temp. Visibility Ceiling Wind METAR/SPECI
23:50
V
10 °C 10 km+ - 360° 360° 12 kt METAR EGQS 272250Z 36012KT 9999 FEW020 10/06 Q1001 RMK BLU
22:50
V
10 °C 10 km+ 3,600 ft 020° 020° 9 kt METAR EGQS 272150Z 02009KT 9999 -SHRA FEW020 BKN036 10/08 Q1001 RMK BLU
21:50
M
10 °C 10 km+ 2,500 ft 010° 010° 11 kt METAR EGQS 272050Z 01011KT 9999 -SHRA SCT018 BKN025 10/08 Q1000 RMK WHT
20:50
V
10 °C 10 km+ 3,400 ft 360° 360° 12 kt METAR EGQS 271950Z 36012KT 9999 -SHRA SCT011 BKN034 10/08 Q1000 TEMPO 7000 SHRA SCT010 RMK GRN TEMPO GRN
20:20
M
10 °C 10 km+ 2,200 ft 350° 350° 14 kt METAR EGQS 271920Z 35014KT 9999 -SHRA SCT010 BKN022 10/09 Q0999 TEMPO 7000 SHRA SCT020 RMK GRN TEMPO WHT
19:50
V
11 °C 10 km+ 4,200 ft 360° 360° 12 kt METAR EGQS 271850Z 36012KT 9999 FEW014 SCT024 BKN042 11/08 Q0999 RMK WHT
19:20
V
11 °C 10 km+ 4,500 ft 350° 350° 11 kt METAR EGQS 271820Z 35011KT 9999 SCT014 BKN045 11/08 Q0998 TEMPO 5000 SHRA SCT014 RMK GRN TEMPO GRN
18:50
V
11 °C 10 km+ - 350° 350° 13 kt METAR EGQS 271750Z 35013KT 9999 FEW015 SCT022 ////// 11/08 Q0998 TEMPO FEW022 RMK WHT TEMPO BLU
18:20
V
11 °C 10 km+ 3,000 ft 020° 020° 11 kt METAR EGQS 271720Z 02011KT 9999 VCSH FEW015 SCT022 BKN030 11/09 Q0998 TEMPO FEW022 RMK WHT TEMPO BLU
17:50
V
10 °C 10 km+ 3,200 ft 010° 010° 14 kt METAR EGQS 271650Z 01014KT 9999 -SHRA FEW012 SCT022 BKN032 10/08 Q0998 TEMPO FEW022 RMK WHT TEMPO BLU
17:32
M
11 °C 9 km 2,200 ft 350° 350° 13 kt METAR EGQS 271632Z 35013KT 9000 SHRA FEW018 BKN022 11/08 Q0997 TEMPO 7000 SHRA RMK WHT TEMPO WHT
17:20
V
11 °C 10 km+ - 360° 360° 13 kt METAR EGQS 271620Z 36013KT 9999 VCSH FEW022 11/07 Q0997 NOSIG RMK BLU BLU
16:50
V
11 °C 10 km+ 3,600 ft 360° 360° 11 kt METAR EGQS 271550Z 36011KT 9999 VCSH FEW023 BKN036 11/08 Q0997 TEMPO 7000 SHRA RMK BLU TEMPO WHT
16:20
V
11 °C 10 km+ - 360° 360° 11 kt METAR EGQS 271520Z 36011KT 9999 FEW012 SCT020 11/08 Q0997 TEMPO 7000 SHRA RMK WHT TEMPO WHT
15:50
V
11 °C 10 km+ 4,000 ft 340° 340° 13 kt METAR EGQS 271450Z 34013KT 9999 VCSH FEW012 SCT018 BKN040 11/08 Q0996 TEMPO 7000 SHRA RMK WHT
15:20
V
12 °C 10 km+ 4,000 ft 330° 330° 18 kt METAR EGQS 271420Z 33018KT 9999 -SHRA FEW015 SCT022 BKN040 12/08 Q0996 TEMPO 7000 SHRA RMK WHT TEMPO WHT
14:50
V
12 °C 10 km+ 4,000 ft 330° 330° 20 kt METAR EGQS 271350Z 33020KT 9999 -SHRA FEW015 FEW020CB SCT024 BKN040 12/07 Q0996 TEMPO 7000 SHRA RMK WHT TEMPO WHT
13:50
V
12 °C 10 km+ - 330° 330° 18 kt METAR EGQS 271250Z 33018KT 9999 VCSH FEW013 FEW022CB SCT024 12/08 Q0995 TEMPO 7000 SHRA SCT014 RMK WHT TEMPO GRN
13:20
V
10 °C 10 km+ - 310° 310° 16 kt METAR EGQS 271220Z 31016KT 9999 -SHRA FEW013 FEW020CB SCT022 10/07 Q0995 TEMPO 7000 SHRA SCT013 RMK WHT TEMPO GRN
12:50
V
10 °C 10 km+ - 300° 300° 18 kt METAR EGQS 271150Z 30018KT 9999 FEW010 SCT020 ////// 10/08 Q0995 TEMPO FEW020 RMK WHT TEMPO BLU
12:20
V
10 °C 10 km+ 3,000 ft 310° 310° 19 kt METAR EGQS 271120Z 31019KT 9999 -SHRA FEW010 SCT020 BKN030 10/08 Q0995 TEMPO 5000 SHRA RMK WHT TEMPO WHT
11:50
V
10 °C 10 km+ 3,000 ft 310° 310° 17 kt METAR EGQS 271050Z 31017KT 9999 VCSH FEW009 SCT020 BKN030 10/07 Q0995 RESHRA TEMPO 5000 SHRA RMK WHT TEMPO WHT
11:38
V
9 °C 10 km+ 3,000 ft 310° 310° 21 kt METAR EGQS 271038Z 31021KT 9999 -SHRA FEW007 SCT020 BKN030 09/07 Q0995 TEMPO 5000 SHRA RMK WHT TEMPO WHT
11:20
M
9 °C 5 km 3,000 ft 310° 310° 19 kt METAR EGQS 271020Z 31019KT 5000 -SHRA FEW014 SCT020 BKN030 09/06 Q0995 TEMPO 4000 SHRA SCT014 RMK WHT TEMPO GRN
11:14
M
9 °C 5 km 3,000 ft 300° 300° 18 kt METAR EGQS 271014Z 30018KT 5000 SHRA FEW014 SCT020 BKN030 09/07 Q0995 TEMPO 4000 SHRA SCT014 RMK WHT TEMPO GRN
10:50
V
10 °C 10 km+ 3,000 ft 300° 300° 18 kt METAR EGQS 270950Z 30018KT 9999 -SHRA FEW013 SCT020 BKN030 10/07 Q0994 TEMPO 5000 SHRA RMK WHT TEMPO WHT
10:20
V
9 °C 10 km+ 3,000 ft 300° 300° 19 kt METAR EGQS 270920Z 30019KT 9999 -SHRA FEW014 SCT020 BKN030 09/06 Q0994 TEMPO 5000 SHRA RMK WHT TEMPO WHT
09:50
M
9 °C 10 km+ 2,000 ft 290° 290° 18 kt METAR EGQS 270850Z 29018KT 9999 -SHRA FEW014 BKN020 BKN030 09/07 Q0994 TEMPO 5000 SHRA RMK WHT TEMPO WHT
09:20
M
9 °C 10 km+ 2,200 ft 270° 270° 18 kt METAR EGQS 270820Z 27018KT 9999 -SHRA FEW013 BKN022 BKN030 09/06 Q0994 TEMPO 5000 SHRA RMK WHT TEMPO WHT
08:50
V
9 °C 10 km+ 3,000 ft 280° 280° 18 kt METAR EGQS 270750Z 28018KT 9999 VCSH FEW014 SCT020 BKN030 09/06 Q0995 TEMPO 5000 SHRA RMK WHT TEMPO WHT
08:20
V
8 °C 10 km+ 3,000 ft 270° 270° 19 kt METAR EGQS 270720Z 27019KT 9999 -SHRA FEW014 SCT020 BKN030 08/06 Q0995 TEMPO 5000 SHRA RMK WHT TEMPO WHT
07:50
V
8 °C 10 km+ 3,000 ft 270° 270° 19 kt METAR EGQS 270650Z 27019KT 9999 -SHRA FEW014 SCT017 BKN030 08/06 Q0995 RMK WHT
06:50
V
8 °C 10 km+ 3,000 ft 280° 280° 18 kt METAR EGQS 270550Z 28018KT 9999 VCSH SCT018 BKN030 08/05 Q0995 TEMPO 7000 SHRA RMK WHT TEMPO WHT
05:50
V
8 °C 10 km+ 7,000 ft 270° 270° 17 kt METAR EGQS 270450Z 27017KT 9999 SCT020 SCT030 BKN070 08/05 Q0995 RMK WHT
04:50
M
8 °C 10 km+ 1,500 ft 280° 280° 17 kt METAR EGQS 270350Z 28017KT 9999 -SHRA BKN015 BKN040 08/05 Q0996 RMK WHT
03:50
V
8 °C 10 km+ 4,000 ft 280° 280° 18 kt METAR EGQS 270250Z 28018KT 9999 -SHRA SCT020 BKN040 08/05 Q0996 RMK WHT
02:50
V
8 °C 10 km+ 7,000 ft 280° 280° 19 kt METAR EGQS 270150Z 28019KT 9999 SCT020 SCT035 BKN070 08/04 Q0997 RMK WHT
01:50
V
8 °C 10 km+ 4,200 ft 280° 280° 21 kt METAR EGQS 270050Z 28021KT 9999 SCT020 BKN042 08/04 Q0998 RMK WHT
00:50
V
8 °C 10 km+ 3,600 ft 280° 280° 18 kt METAR EGQS 262350Z 28018KT 9999 -SHRA SCT022 BKN036 08/04 Q0998 RMK WHT

September 26, 2022

Time Code Weather Temp. Visibility Ceiling Wind METAR/SPECI
23:50
V
8 °C 10 km+ 8,200 ft 290° 290° 20 kt METAR EGQS 262250Z 29020KT 9999 -SHRA FEW030 SCT040 BKN082 08/05 Q0999 RMK BLU
22:50
V
8 °C 10 km+ 4,500 ft 290° 290° 15 kt METAR EGQS 262150Z 29015KT 9999 -SHRA FEW025 BKN045 08/05 Q0999 RMK BLU
21:50
V
9 °C 10 km+ 4,000 ft 290° 290° 20 kt METAR EGQS 262050Z 29020KT 9999 SHRA FEW030 OVC040 09/03 Q1000 RMK BLU
20:50
V
9 °C 10 km+ 7,000 ft 290° 290° 17 kt METAR EGQS 261950Z 29017KT 9999 FEW025 BKN070 09/03 Q1000 TEMPO 5000 SHRA SCT024 RMK BLU TEMPO WHT
20:20
V
9 °C 10 km+ 7,000 ft 290° 290° 18 kt METAR EGQS 261920Z 29018KT 9999 FEW025 BKN070 09/03 Q1000 TEMPO 5000 SHRA SCT024 RMK BLU
19:50
V
8 °C 10 km+ - 290° 290° 19 kt METAR EGQS 261850Z 29019KT 9999 FEW024 SCT060 08/04 Q1001 TEMPO 5000 SHRA SCT024 RMK BLU TEMPO WHT
19:20
V
9 °C 10 km+ 6,000 ft 300° 300° 21 - 32 kt METAR EGQS 261820Z 30021G32KT 9999 VCSH FEW025 SCT030 BKN060 09/04 Q1001 TEMPO 5000 SHRA SCT024 RMK BLU TEMPO WHT
18:50
V
9 °C 10 km+ 7,000 ft 310° 310° 19 kt METAR EGQS 261750Z 31019KT 9999 FEW020 BKN070 09/04 Q1001 TEMPO 5000 SHRA SCT024 RMK BLU TEMPO WHT
18:20
M
9 °C 10 km+ 2,800 ft 300° 300° 18 kt METAR EGQS 261720Z 30018KT 9999 -SHRA FEW020 BKN028 09/04 Q1001 TEMPO 5000 SHRA SCT024 RMK BLU TEMPO WHT
17:50
V
9 °C 10 km+ - 310° 310° 21 kt METAR EGQS 261650Z 31021KT 9999 FEW020 SCT055 09/04 Q1001 NOSIG RMK BLU BLU
17:20
M
9 °C 10 km+ 2,800 ft 320° 320° 23 kt METAR EGQS 261620Z 32023KT 9999 FEW020 BKN028 09/03 Q1001 TEMPO 5000 SHRA SCT024 RMK BLU TEMPO WHT
16:50
V
10 °C 10 km+ 6,000 ft 320° 320° 24 kt METAR EGQS 261550Z 32024KT 9999 FEW020 SCT025 BKN060 10/03 Q1001 TEMPO 5000 SHRA SCT024 RMK BLU TEMPO WHT
16:20
V
9 °C 10 km+ 6,000 ft 320° 320° 25 - 38 kt METAR EGQS 261520Z 32025G38KT 9999 FEW018 SCT025 BKN060 09/04 Q1001 TEMPO 5000 SHRA SCT024 RMK BLU TEMPO WHT
15:50
M
10 °C 10 km+ 2,800 ft 310° 310° 22 kt METAR EGQS 261450Z 31022KT 9999 FEW020 BKN028 10/04 Q1001 TEMPO 5000 SHRA SCT025 RMK BLU TEMPO WHT
15:20
V
9 °C 10 km+ - 330° 330° 24 - 37 kt METAR EGQS 261420Z 33024G37KT 9999 FEW022 SCT030 09/05 Q1001 RESHRA NOSIG 5000 SHRA SCT024 RMK BLU WHT
15:09
M
9 °C 5 km 3,000 ft 320° 320° 27 - 37 kt METAR EGQS 261409Z 32027G37KT 5000 SHRA FEW022 BKN030 09/05 Q1001 TEMPO 9999 NSW RMK WHT TEMPO BLU
14:50
V
10 °C 10 km+ - 320° 320° 25 kt METAR EGQS 261350Z 32025KT 9999 FEW012 SCT050 10/04 Q1000 NOSIG RMK BLU BLU
14:20
M
10 °C 10 km+ 2,700 ft 310° 310° 23 kt METAR EGQS 261320Z 31023KT 9999 -SHRA FEW012 BKN027 10/04 Q1000 TEMPO 7000 SHRA SCT024 RMK BLU TEMPO WHT
13:50
V
9 °C 10 km+ 3,000 ft 320° 320° 27 - 39 kt METAR EGQS 261250Z 32027G39KT 9999 -SHRA FEW010 BKN030 09/05 Q1000 TEMPO 7000 SHRA SCT024 RMK BLU TEMPO WHT
13:20
V
11 °C 10 km+ - 310° 310° 23 kt METAR EGQS 261220Z 31023KT 9999 VCSH FEW009 SCT030 11/05 Q1001 TEMPO 7000 SHRA SCT024 RMK BLU TEMPO WHT
12:50
M
10 °C 10 km+ 2,800 ft 310° 310° 25 kt METAR EGQS 261150Z 31025KT 9999 -SHRA FEW008 BKN028 10/05 Q1000 TEMPO 7000 SHRA SCT024 RMK BLU TEMPO WHT
Older data

We and third parties follow your internet behavior on our website with cookies. If you continue, we assume you agree with our cookie policy. Learn more